x

Los Angeles Pier F, Ca - 9410670 (pfxc1) Weather Station

3:54 - Fri 1st Jul 2016 All times are PDT. -7 hours from GMT.

  • Wind
    7mph, 8mph gusts
  • Aire Temp 67°f
  • Sea Pressure 1010.9mb
  • Los Angeles Pier F, Ca - 9410670
  • Los Angeles Pier F, Ca - 9410670

More Historic Weather Station data

Upgrade to MSW Pro to gain access to the past 30 days of data for over 8000 Wavebouys and Weather Stations around the globe.

Join Pro

Comparision Forecast

View Surf forecast
   
vie 07/01 3:54 7 8 mph 1010.9mb 67f
3:48 8 9 mph 1010.9mb 67f
3:42 9
mph
1010.9mb 67f
3:36 9
mph
1010.9mb 67f
3:30 9 10 mph 1010.9mb 67f
3:24 9 10 mph 1010.9mb 67f
3:18 9 10 mph 1010.9mb 67f
3:12 8 9 mph 1010.9mb 67f
3:06 8 9 mph 1010.9mb 67f
3:00 8 9 mph 1010.9mb 67f
2:54 8 9 mph 1010.9mb 67f
2:48 7 8 mph 1011mb 67f
2:42 8 9 mph 1010.9mb 67f
2:36 8
mph
1010.9mb 67f
2:30 7 8 mph 1010.9mb 68f
2:24 7 8 mph 1010.9mb 68f
2:12 9 10 mph 1010.9mb 68f
2:06 7 10 mph 1010.8mb 68f
2:00 8 9 mph 1010.9mb 69f
1:54 9 10 mph 1010.9mb 69f
1:48 6 8 mph 1010.9mb 69f
1:42 7 10 mph 1011mb 69f
1:36 10 13 mph 1011.2mb 69f
1:30 9 13 mph 1011.2mb 69f
1:24 9 13 mph 1011.2mb 69f
1:18 9 14 mph 1011.2mb 69f
1:12 7 11 mph 1011.2mb 69f
1:06 7 9 mph 1011.2mb 68f
1:00 7 9 mph 1011.2mb 68f
12:54 7 9 mph 1011.2mb 68f
12:48 5 6 mph 1011.2mb 68f
12:42 5 7 mph 1011.2mb 68f
12:36 5 6 mph 1011.2mb 68f
12:30 5 6 mph 1011.1mb 68f
12:24 6 9 mph 1011.2mb 68f
12:18 5 7 mph 1011.2mb 68f
12:12 6 8 mph 1011.2mb 68f
12:06 6 8 mph 1011.2mb 68f
12:00 6 8 mph 1011.2mb 67f
jue 06/30 11:54 3 7 mph 1011.2mb 67f
11:48 2 5 mph 1011.3mb 67f
11:42 2 3 mph 1011.3mb 67f
11:36 2 3 mph 1011.2mb 67f
11:30 2 3 mph 1011.3mb 67f
11:24 1 3 mph 1011.2mb 67f
11:18  -  mph 1011.2mb 67f
11:12  -  2 mph 1011.2mb 67f
11:06  -  1 mph 1011.4mb 67f
11:00  -  2 mph 1011.5mb 67f
10:54 1 2 mph 1011.5mb 67f
10:48 1 2 mph 1011.5mb 67f
10:42 2 3 mph 1011.5mb 67f
10:36 3 5 mph 1011.5mb 67f
10:30 3 6 mph 1011.4mb 67f
10:24 6
mph
1011.4mb 67f
10:18 5 6 mph 1011.4mb 67f
10:12 6 7 mph 1011.3mb 66f
10:06 6 8 mph 1011.2mb 66f
10:00 6 7 mph 1011.2mb 66f
9:54 7 9 mph 1011mb 66f
9:48 7 9 mph 1011mb 66f
9:42 7 9 mph 1010.9mb 66f
9:36 8 11 mph 1010.8mb 66f
9:30 10 11 mph 1010.8mb 66f
9:24 11 14 mph 1010.7mb 66f
9:18 13 14 mph 1010.5mb 66f
9:12 13 14 mph 1010.4mb 67f
9:06 13 14 mph 1010.4mb 67f
9:00 11 13 mph 1010.2mb 67f
8:54 11
mph
1010.2mb 67f
8:48  -  mph 1010mb 67f
8:42  -  mph 1009.9mb 67f
8:36  -  mph 1009.7mb 67f
8:30 10 13 mph 1009.6mb 67f
8:24 10 11 mph 1009.6mb 68f
8:18  -  mph 1009.6mb 68f
8:12  -  mph 1009.4mb 68f
8:06  -  mph 1009.3mb 68f
8:00  -  mph - 68f
7:54  -  mph - 68f
7:48  -  mph 1009.1mb 69f
7:42  -  mph 1009.1mb 70f
7:36  -  mph 1009mb 70f
7:30  -  mph 1008.9mb 70f
7:24  -  mph 1008.9mb 71f
7:18  -  mph 1008.8mb 71f
7:12  -  mph 1008.8mb 71f
7:06  -  mph 1008.7mb 72f
7:00  -  mph 1008.6mb 73f
6:54  -  mph 1008.5mb 73f
6:48  -  mph 1008.5mb -
6:42  -  mph 1008.5mb -
6:36  -  mph 1008.4mb -
6:30 13 15 mph - -
6:24 13 14 mph - -
6:18  -  mph 1008.4mb -
6:12  -  mph 1008.5mb -
6:06  -  mph 1008.5mb -
6:00 14 15 mph - -
5:30  -  mph 1008.9mb -
5:24  -  mph 1008.9mb -
5:18  -  mph 1008.9mb 69f
5:12  -  mph 1008.9mb 69f
5:06  -  mph 1008.8mb 69f
5:00  -  mph 1008.9mb 70f
4:54  -  mph 1009.1mb 70f
4:48  -  mph 1009.1mb -
4:42  -  mph 1009.2mb -
4:36  -  mph 1009.2mb -
4:00  -  mph 1009.5mb -
3:54  -  mph 1009.6mb -
3:48  -  mph 1009.8mb -
3:42  -  mph 1009.8mb -
3:36  -  mph 1009.9mb -
3:30  -  mph 1009.9mb -
3:24  -  mph 1010.1mb -
3:18  -  mph 1010.2mb 69f
3:12  -  mph 1010.4mb 69f
3:06  -  mph 1010.4mb 69f
3:00  -  mph 1010.4mb -
2:54  -  mph 1010.4mb -
2:42  -  mph 1010.7mb -
2:36  -  mph 1010.9mb -
2:30 11 13 mph 1010.9mb 69f
2:24 11 13 mph 1010.8mb 69f
2:18 11 13 mph 1011mb 70f
2:12 11 13 mph 1010.9mb 69f
2:06 11 14 mph 1011mb 68f
2:00 11 14 mph 1011mb 68f
1:54 11 14 mph 1011mb 69f
1:48 11 13 mph 1011.1mb 70f
1:42 11 13 mph 1011.1mb 71f
1:36 13 14 mph 1011.3mb 71f
1:30 13 14 mph 1011.5mb 70f
1:24 11 14 mph 1011.3mb 68f
1:18 11 14 mph 1011.3mb 67f
1:12 13 14 mph 1011.3mb 68f
1:06 11 14 mph 1011.3mb 68f
1:00 10 14 mph 1011.4mb 67f
12:54 11 13 mph 1011.3mb 67f
12:48 10 13 mph 1011.4mb 67f
12:42 10 13 mph 1011.4mb 68f
12:36 10 11 mph 1011.5mb 68f
12:30 10 13 mph 1011.4mb 67f
12:24 9 11 mph 1011.5mb 68f
12:18 9 10 mph 1011.5mb -
12:12 9 10 mph 1011.4mb -
12:06 8 10 mph 1011.6mb -
12:00 7 9 mph 1011.9mb 69f
11:54 7 9 mph 1011.8mb 67f
11:48 7 9 mph 1011.7mb 67f
11:42 7 9 mph 1011.6mb 68f
11:36 6 9 mph 1012mb 68f
11:30 9 11 mph 1011.9mb 67f
11:24 8 10 mph 1011.8mb 68f
11:18 7 9 mph 1012mb 68f
11:12 7 9 mph 1011.9mb 66f
11:06 8 10 mph 1012mb 66f
11:00 8 11 mph 1011.9mb 66f
10:54 10 13 mph 1012.1mb 66f
10:48 10 14 mph 1012.1mb 66f
10:42 11 13 mph 1012.1mb 66f
10:36 11 14 mph 1012.1mb 66f
10:30 10 13 mph 1012.1mb 66f
10:24 10 13 mph 1012mb 66f
10:18 9 10 mph 1012mb 66f
10:12 9 11 mph 1011.9mb 66f
10:06 8 10 mph 1011.8mb 66f
10:00 8 10 mph 1011.8mb 66f
9:54 8 10 mph 1011.7mb 66f
9:48 8 10 mph 1011.6mb 66f
9:42 8 9 mph 1011.6mb 66f
9:36 8 9 mph 1011.5mb 66f
9:30 8 9 mph 1011.6mb 66f
9:24 7 9 mph 1011.6mb 66f
9:18 8 9 mph 1011.6mb 66f
9:12 8 9 mph 1011.6mb 66f
9:06 8 9 mph 1011.7mb 66f
9:00 7 8 mph 1011.6mb 65f
8:30 9 11 mph 1011.5mb 66f
8:24 9 11 mph 1011.5mb 66f
8:18 9 10 mph 1011.5mb 66f
8:12 9 11 mph 1011.5mb 66f
8:06 9 10 mph 1011.4mb 66f
8:00 10 11 mph 1011.4mb 66f
7:54 9 11 mph 1011.3mb 66f
7:48 10 11 mph 1011.2mb 66f
7:42 9 11 mph 1011.3mb 66f
7:36 9 10 mph 1011.3mb 66f
7:30 9 10 mph 1011.2mb 66f
7:24 10 13 mph 1011.2mb 66f
7:18 10 11 mph 1011.1mb 66f
7:12 11 14 mph 1011mb 66f
7:06 9 11 mph 1011mb 66f
7:00 10 13 mph 1011mb 66f
6:54 8 10 mph 1011mb 66f
6:48 8 9 mph 1010.9mb 66f
6:42 7 8 mph 1011mb 66f
6:36 7 9 mph 1011mb 66f
6:30 8 9 mph 1010.8mb 66f
6:24 7 9 mph 1010.6mb 66f
6:18 7 8 mph 1010.5mb 66f
6:12 7 9 mph 1010.5mb 66f
6:06 6 8 mph 1010.5mb 66f
6:00 8 9 mph 1010.5mb 66f
5:54 8 10 mph 1010.5mb 66f
5:48 8 10 mph 1010.5mb 67f
5:42 7 10 mph 1010.5mb 67f
5:36 9 11 mph 1010.4mb 67f
5:30 8 10 mph 1010.4mb 67f
5:24 8 11 mph 1010.3mb 67f
5:18 10 13 mph 1010.2mb 67f
5:12 10 13 mph 1010.2mb 67f
5:00 10 11 mph 1010.1mb 67f
4:54 8 11 mph 1010.1mb 67f
4:48 9 10 mph 1010.2mb 67f
4:42 11 13 mph 1010.2mb 67f
4:36 10 13 mph 1010.2mb 67f
4:30 10 13 mph 1010.1mb 67f
4:24 11 13 mph 1010.1mb 67f
4:18 8 9 mph 1010.1mb 67f
4:12 9 14 mph 1010.1mb 67f
4:06 9 11 mph 1009.9mb 67f
4:00 8 11 mph 1010mb 67f
3:54 7 9 mph 1010.1mb 67f
3:48 7 9 mph 1010.1mb 67f
3:42 8 10 mph 1010mb 68f
3:36 8 10 mph 1010.1mb 68f
3:30 8 10 mph 1010.1mb 68f
3:24 8 10 mph 1010mb 68f
3:18 8 11 mph 1010.1mb 68f
3:12 10 13 mph 1010mb 68f
3:06 8 16 mph 1010mb 68f
3:00 9 13 mph 1010.1mb 68f
2:54 8 10 mph 1010.1mb 68f
2:48 7 9 mph 1010.2mb 68f
2:42 6 8 mph 1010.3mb 68f
2:36 6 8 mph 1010.4mb 68f
2:30 6 8 mph 1010.4mb 68f
2:24 3 7 mph 1010.4mb 68f
2:18 6 8 mph 1010.4mb 68f
2:12 6 8 mph 1010.4mb 67f
2:06 5 7 mph 1010.4mb 67f
2:00 2 5 mph 1010.4mb 67f
1:54 2 3 mph 1010.4mb 67f
1:48 2 3 mph 1010.4mb 67f
1:42 2 3 mph 1010.5mb 67f
1:36 2 3 mph 1010.7mb 67f
1:30 3 5 mph 1010.7mb 67f
1:24 3 5 mph 1010.7mb 66f
1:18 2 3 mph 1010.7mb 66f
1:12 2 3 mph 1010.7mb 66f
1:06 2 3 mph 1010.8mb 66f
1:00 2 3 mph 1010.9mb 66f
12:54 2 3 mph 1010.9mb 66f
12:48 3 6 mph 1010.9mb 66f
12:42 3 5 mph 1010.9mb 66f
12:36 3 6 mph 1010.9mb 66f
12:30 5 6 mph 1010.9mb 66f
12:24 6 7 mph 1011mb 66f
12:18 6 7 mph 1011.1mb 66f
12:12 7 8 mph 1011.1mb 66f
12:06 6 7 mph 1011.1mb 66f
12:00 7 8 mph 1011.1mb 66f
mié 06/29 11:54 7 8 mph 1011.1mb 66f
11:48 6 7 mph 1011mb -
11:42 6 7 mph 1011mb -
11:36 6 7 mph 1011.1mb -
11:30 8 9 mph 1011mb 67f
11:24 7 9 mph 1011mb 67f
11:18 8
mph
- 67f
11:12 7 8 mph - 67f
11:06 8 9 mph - 67f
11:00 8 9 mph 1010.9mb 67f
10:54 8 9 mph 1011mb 67f
10:48 9 10 mph 1011mb -
10:42 10 11 mph 1010.9mb -
10:36 10 11 mph 1010.9mb -
10:30 11 13 mph 1010.7mb 68f
10:24 10 11 mph 1010.8mb 68f
10:18 9 10 mph 1010.8mb 68f
10:12 8
mph
1010.8mb 68f
10:06 9 10 mph 1010.8mb 69f
10:00 8 9 mph 1010.8mb 69f
9:54 8
mph
1010.8mb 69f
9:48 7 8 mph 1010.7mb 69f
9:42 5 6 mph 1010.6mb 69f
9:36 2
mph
1010.4mb 70f
9:30 3 5 mph 1010.3mb 70f
9:24 3 5 mph 1010.2mb 70f
9:18 3 5 mph 1010.2mb 71f
9:12 3 5 mph 1010.1mb 71f
9:06 5 6 mph 1010.1mb 71f
9:00 5 6 mph 1010mb 71f
8:54 6
mph
1009.9mb 71f
8:48 7 8 mph 1009.9mb 72f
8:42 6 7 mph 1009.8mb 72f
8:36 6 7 mph 1009.8mb 72f
8:30 7 8 mph 1009.7mb 72f
8:24 7 8 mph 1009.7mb 72f
8:18 7 8 mph 1009.6mb -
8:12 7 8 mph 1009.5mb -
8:06 8
mph
1009.5mb -
8:00  -  mph 1009.5mb -
7:54  -  mph 1009.4mb -
7:48  -  mph 1009.4mb -
7:42  -  mph 1009.4mb -
7:36  -  mph 1009.3mb -
7:30  -  mph - 76f
7:24  -  mph - 77f
7:18 3 6 mph 1009.6mb 76f
7:12 5 7 mph 1009.4mb 75f
7:06 6 7 mph 1009.4mb 74f
7:00  -  mph 1009.3mb -
6:54  -  mph 1009.3mb -
6:48 8 9 mph - -
6:42 9 10 mph - -
6:36 9 11 mph - -
6:30  -  mph 1009.1mb -
6:24  -  mph 1009.2mb -
6:18 9 11 mph 1009.2mb 74f
6:12 10 11 mph 1009.2mb 75f
6:06 9
mph
1009.2mb 75f
6:00  -  mph 1009.3mb -
5:54  -  mph 1009.3mb -
5:48  -  mph 1009.3mb 76f
5:42  -  mph 1009.3mb 76f
5:36  -  mph 1009.4mb 76f
5:30  -  mph 1009.4mb 76f
5:24  -  mph 1009.5mb 76f
5:18  -  mph 1009.4mb 76f
5:12  -  mph 1009.5mb 77f
5:06  -  mph 1009.5mb 77f
5:00  -  mph 1009.5mb 77f
4:54  -  mph 1009.6mb 77f
4:48  -  mph 1009.6mb 77f
4:42  -  mph 1009.6mb 77f
4:36  -  mph 1009.7mb 77f
4:30  -  mph 1009.7mb -
4:24  -  mph 1009.6mb -
4:18  -  mph 1009.7mb -
4:12  -  mph 1009.7mb -
4:06  -  mph 1009.7mb -
4:00  -  mph 1009.8mb -
3:54  -  mph 1009.8mb -
3:48  -  mph 1010mb -
3:42  -  mph 1010mb -
3:36  -  mph 1010.3mb -
3:30  -  mph 1010.2mb -
3:24  -  mph 1010.2mb -
3:18 13 15 mph 1010.3mb -
3:12 13 14 mph 1010.4mb -
3:06 11 14 mph 1010.5mb -
3:00 9 13 mph - -
2:54 9 10 mph - -
2:48  -  mph 1010.9mb -
2:42  -  mph 1010.9mb -
2:36  -  mph 1010.9mb -
2:30 15 17 mph 1011mb 74f
2:24 17 18 mph 1011mb 73f
2:18 18 20 mph 1011.1mb 73f
2:12 17 20 mph 1011.2mb 73f
2:06 16 18 mph 1011.3mb 73f
2:00 14 18 mph 1011.3mb 72f
1:54 17 18 mph 1011.3mb 73f
1:48 16 18 mph 1011.2mb 73f
1:42 16 18 mph 1011.3mb 73f
1:36 15 17 mph 1011.3mb 72f
1:30 14 15 mph 1011.5mb 73f
1:24 14 15 mph 1011.5mb 71f
1:18 14
mph
1011.5mb 71f
1:12 14 15 mph 1011.5mb 72f
1:06 14 15 mph 1011.7mb 74f
1:00 14 15 mph 1011.8mb 73f
12:54 14 16 mph 1012mb 73f
12:48 14 15 mph 1012mb 73f
12:42 15 17 mph 1012mb 72f
12:36 14 16 mph 1012mb 72f
12:30 14 15 mph 1012.1mb 72f
12:24 13 14 mph 1012mb 71f
12:18 13 14 mph 1012mb 72f
12:12 13 14 mph 1012.1mb 73f
12:06 13 14 mph 1012.1mb 73f
12:00 11 13 mph 1012.1mb 72f
11:54 11 13 mph 1012.2mb 72f
11:48 11 13 mph 1012.1mb 72f
11:42 11 13 mph 1012.1mb 72f
11:36 11
mph
1012.1mb 73f
11:30 10 11 mph 1012.1mb 73f
11:24 10 11 mph 1012.2mb 73f
11:18 9 10 mph 1012.3mb 73f
11:12 8 9 mph 1012.5mb 71f
11:06 8 9 mph 1012.4mb 69f
11:00 8 9 mph 1012.3mb 69f
10:54 7 9 mph 1012.3mb 69f
10:48 7 8 mph 1012.4mb 69f
10:42 6 7 mph 1012.3mb 69f
10:36 6 7 mph 1012.3mb 69f
10:30 6 7 mph 1012.4mb 69f
10:24 6 7 mph 1012.4mb 69f
10:18 6 7 mph 1012.4mb 70f
10:12 6 7 mph 1012.5mb 71f
10:06 6 7 mph 1012.6mb 71f
10:00 5 7 mph 1012.6mb 71f
9:54 3 5 mph 1012.9mb 72f
9:48 2 5 mph 1013mb 71f
9:42 2 5 mph 1012.9mb 70f
9:36 5 6 mph 1012.8mb 70f
9:30 3 5 mph 1012.8mb 70f
9:24 2 5 mph 1012.9mb 70f
9:18 1 3 mph 1013mb 69f
9:12 3 5 mph 1013mb 69f
9:06 3 6 mph 1012.9mb 69f
9:00 5 6 mph 1012.8mb 68f
8:54 6 7 mph 1012.8mb 69f
8:48 6 7 mph 1012.7mb 68f
8:42 5 6 mph 1012.8mb 68f
8:36 5 6 mph 1012.8mb 68f
8:30 5 6 mph 1012.6mb 68f
8:24 3
mph
1012.7mb 68f
8:18 3 6 mph 1012.7mb 68f
8:12 6
mph
1012.6mb 67f
8:06 6
mph
1012.7mb 67f
8:00 6 8 mph 1012.7mb 67f
7:54 6 8 mph 1012.6mb 67f
7:48 7 8 mph 1012.6mb 67f
7:42 6 7 mph 1012.6mb 67f
7:36 6 7 mph 1012.4mb 67f
7:30 6 7 mph 1012.3mb 67f
7:24 6 7 mph 1012.4mb 67f
7:18 6 8 mph 1012.4mb 67f
7:12 6 8 mph 1012.3mb 67f
7:06 6 7 mph 1012.3mb 67f
7:00 6 7 mph 1012.3mb 67f
6:54 6 7 mph 1012.2mb 67f
6:48 3 6 mph 1012.2mb 68f
6:42 3 6 mph 1012.3mb 67f
6:36 5 6 mph 1012.2mb 67f
6:30 3 5 mph 1012.3mb 67f
6:24 5 6 mph 1012.3mb 67f
6:18 5 6 mph 1012.2mb 67f
6:12 5 6 mph 1012.3mb 67f
6:06 3 5 mph 1012.3mb 67f
6:00 3 5 mph 1012.2mb 67f
5:54 2 5 mph 1012.1mb 67f
5:48 2 3 mph 1012.1mb 67f
5:42 2 3 mph 1012mb 67f
5:36 1 2 mph 1012mb 67f
5:30 1 3 mph 1012mb 67f
5:24 1 2 mph 1011.9mb 67f
5:18 1 2 mph 1011.9mb 67f
5:12 1 2 mph 1012mb 67f
5:06 1 2 mph 1012mb 67f
5:00  -  2 mph 1012mb 67f
4:54 1 3 mph 1012mb 67f
4:48 2 3 mph 1012mb 67f
4:42 3 6 mph 1012.2mb 67f
4:36 3 6 mph 1012.2mb 67f
4:30 5 6 mph 1012.1mb 67f
4:24 5 6 mph 1012.1mb 67f
4:18 6 7 mph 1012.1mb 67f
4:12 5 6 mph 1012mb 67f
4:06 5 6 mph 1012mb 67f
4:00 5
mph
1011.9mb 67f
3:54 5 6 mph 1011.9mb 67f
3:42 5 6 mph 1012mb 67f
3:36 5 7 mph 1012mb 67f
3:30 3 6 mph 1012mb 67f
3:24 3 5 mph 1012mb 67f
3:18 3 5 mph 1012mb 67f
3:12 5 6 mph 1012mb 67f
3:06 5 7 mph 1012mb 67f
3:00 3 5 mph 1012.1mb 67f
2:54 3
mph
1012mb 67f
2:48 2 3 mph 1012mb 67f
2:42 2 3 mph 1012mb 67f
2:36 2 3 mph 1012mb 67f
2:30 2 3 mph 1012mb 66f
2:24 2 3 mph 1012mb 66f
2:18 2 3 mph 1012mb 66f
2:12 2 3 mph 1012mb 66f
2:06 3 5 mph 1012mb 66f
2:00 5 6 mph 1012mb 66f
1:54 5 6 mph 1012mb 66f
1:48 6
mph
1012mb 66f
1:42 6 7 mph 1012.1mb 66f
1:36 7 8 mph 1012.2mb 66f
1:30 6 7 mph 1012.2mb 67f
1:24 5 6 mph 1012.2mb 67f
1:18 5 6 mph 1012.3mb 67f
1:12 5 6 mph 1012.3mb 67f
1:06 3 5 mph 1012.3mb 67f
1:00 3
mph
1012.3mb 67f
12:54 2 3 mph 1012.3mb 67f
12:48 3 5 mph 1012.2mb 67f
12:42 5 6 mph 1012.1mb 67f
12:36 6
mph
1012.2mb 67f
12:30 6 7 mph 1012.2mb 67f
12:24 6 7 mph 1012.3mb 67f
12:18 6 7 mph 1012.3mb 67f
12:12 6 8 mph 1012.2mb 67f
12:06 7 9 mph 1012.1mb 67f
12:00 7
mph
1012.2mb 68f
mar 06/28 11:54 6 7 mph 1012.2mb 68f
11:48 6
mph
1012.2mb 67f
11:42 5 6 mph 1012.2mb 68f
11:36 2
mph
1012.2mb 68f
11:30 3 5 mph 1012.1mb 68f
11:24 3
mph
1012.2mb 68f
11:18 3
mph
1012.3mb 68f
11:12 3
mph
1012.3mb 68f
11:06 5
mph
1012.3mb 68f
11:00 5
mph
1012.3mb 68f
10:54 5 6 mph 1012.4mb 68f
10:48  -  mph 1012.3mb 68f
10:42  -  mph 1012.4mb 68f
10:36  -  mph 1012.4mb 68f
10:30 5 6 mph 1012.4mb 68f
10:24 6
mph
1012.4mb 69f
10:18 6 7 mph 1012.5mb 68f
10:12 6 7 mph 1012.5mb 68f
10:06 7
mph
1012.4mb 68f
10:00 6 7 mph 1012.4mb 69f
9:54 6 7 mph 1012.4mb 69f
9:48 6 8 mph 1012.3mb 69f
9:42 6
mph
1012.2mb 69f
9:36 5 6 mph 1012.1mb 69f
9:30 6
mph
1012.1mb 69f
9:24 5 7 mph 1012mb 69f
9:18 3 5 mph 1012mb 69f
9:12 5 6 mph 1011.8mb 69f
9:06 5 6 mph 1011.7mb 69f
9:00 5 6 mph 1011.7mb 69f
8:54 5 6 mph 1011.8mb 69f
8:48  -  mph 1011.8mb 69f
8:42  -  mph 1011.8mb 69f
8:36  -  mph 1011.7mb 69f
8:30 2 3 mph 1011.6mb 69f
8:24 1 2 mph 1011.5mb 70f
8:18 2 3 mph 1011.5mb 70f
8:12 5 6 mph 1011.5mb 70f
8:06 5 6 mph 1011.5mb 71f
8:00  -  mph 1011.5mb -
7:54  -  mph 1011.5mb -
7:48 6 8 mph 1011.3mb -
7:42 9 11 mph 1011.1mb -
7:36 10 13 mph 1011.1mb -
7:30  -  mph 1011.1mb 70f
7:24  -  mph 1010.9mb 71f
7:18  -  mph 1011.1mb 72f
7:12  -  mph 1011.1mb 73f
7:06  -  mph 1011mb 74f
7:00  -  mph 1011mb 74f
6:54  -  mph 1011mb 75f
6:48  -  mph 1011mb -
6:42  -  mph 1010.9mb -
6:36  -  mph 1010.9mb -
6:30  -  mph 1010.8mb -
6:24  -  mph 1010.8mb -
6:18  -  mph 1010.8mb 76f
6:12  -  mph 1010.8mb 77f
6:06  -  mph 1010.8mb 77f
6:00  -  mph - 78f
5:54  -  mph - 79f
5:48  -  mph 1010.8mb -
5:42  -  mph 1010.8mb -
5:36  -  mph 1010.8mb -
5:30  -  mph 1010.8mb -
5:24  -  mph 1010.9mb -
5:18  -  mph 1011mb 80f
5:12  -  mph 1010.9mb 80f
5:06  -  mph 1010.8mb 80f
5:00  -  mph 1010.8mb -
4:54  -  mph 1011mb -
4:48  -  mph 1011.1mb -
4:42  -  mph 1011.2mb -
4:36  -  mph 1011.2mb -
4:30  -  mph 1011.3mb -
4:24  -  mph 1011.2mb -
4:18  -  mph 1011mb 73f
4:12  -  mph 1011.1mb 77f
4:06  -  mph 1011.4mb 79f
4:00  -  mph 1011.5mb 78f
3:54  -  mph 1011.5mb 78f
3:48  -  mph 1011.6mb -
3:42  -  mph 1011.6mb -
3:36  -  mph 1011.6mb -
3:30  -  mph 1011.6mb -
3:24  -  mph 1011.6mb -
3:18  -  mph 1011.7mb 78f
3:12  -  mph 1011.8mb 79f
3:06  -  mph 1011.8mb 79f
3:00  -  mph 1011.9mb 78f
2:54  -  mph 1012mb 78f
2:48  -  mph 1011.9mb 79f
2:42  -  mph 1012mb 82f
2:36  -  mph 1012.3mb 85f
2:30 8 10 mph 1012.3mb 85f
2:24 8 10 mph 1012.3mb 84f
2:18 8 10 mph 1012.5mb 84f
2:12 7 9 mph 1012.7mb 82f
2:06 7 10 mph 1012.8mb 81f
2:00 11 14 mph 1012.7mb 80f
1:54 13 14 mph 1012.7mb 79f
1:48 11 14 mph 1012.9mb 78f
1:42 13 14 mph 1012.9mb 77f
1:36 11 14 mph 1012.9mb 78f
1:30 9 11 mph 1013mb 79f
1:24 9 10 mph 1013.1mb 79f
1:18 9 10 mph 1013.1mb 79f
1:12 11 13 mph 1013.1mb 79f
1:06 11 13 mph 1013.2mb 79f
1:00 11 13 mph 1013.3mb 77f
12:54 11 14 mph 1013.4mb 76f
12:48 13 15 mph 1013.4mb 76f
12:42 13 14 mph 1013.4mb 75f
12:36 15 17 mph 1013.5mb 74f
12:30 16 17 mph 1013.6mb 74f
12:24 16 18 mph 1013.7mb 73f
12:18 15 17 mph 1013.8mb 74f
12:12 14 16 mph 1013.8mb 73f
12:06 14 15 mph 1013.8mb 73f
12:00 14 15 mph 1013.9mb 74f
11:54 13 14 mph 1014mb 74f
11:48 11 13 mph 1014.1mb 74f
11:42 11 13 mph 1014.1mb 74f
11:36 11
mph
1014.1mb 73f
11:30 10 13 mph 1014.1mb 73f
11:24 11 13 mph 1014.1mb 73f
11:18 10 11 mph 1014.1mb 72f
11:12 8 9 mph 1014.1mb 71f
11:06 8 9 mph 1014.1mb 71f
11:00 8 9 mph 1014.2mb 70f
10:54 8 9 mph 1014.1mb 69f
10:48 8 9 mph 1014.1mb 69f
10:42 8 9 mph 1013.9mb 69f
10:36 7 8 mph 1014mb 70f
10:30 7 8 mph 1014mb 70f
10:24 6 7 mph 1014.1mb 70f
10:18 6 7 mph 1013.9mb 69f
10:12 6 7 mph 1014.1mb 70f
10:06 6 7 mph 1014.1mb 70f
10:00 7 8 mph 1014.1mb 69f
9:54 7 8 mph 1014mb 69f
9:48 7
mph
1014mb 69f
9:42 7
mph
1014mb 69f
9:36 7 8 mph 1013.9mb 69f
9:30 7 8 mph 1013.9mb 69f
9:24 7 8 mph 1014mb 69f
9:18 7 8 mph 1014.2mb 69f
9:12 7 8 mph 1014.1mb 69f
9:06 7 8 mph 1013.9mb 69f
9:00 7 8 mph 1013.9mb 69f
8:54 8 9 mph 1013.9mb 69f
8:48 9
mph
1013.8mb -
8:42 9 10 mph 1013.9mb -
8:36 8 9 mph 1013.8mb -
8:30 7 9 mph 1013.8mb 69f
8:24 8 9 mph 1013.7mb 69f
8:18 7 8 mph 1013.8mb 69f
8:12 7 8 mph 1013.9mb 68f
8:06 6 7 mph 1013.9mb 68f
8:00 6 7 mph 1013.7mb 68f
7:54 6
mph
1013.8mb 68f
7:48 5 6 mph 1013.9mb 68f
7:42 3 5 mph 1013.8mb 68f
7:36 3 5 mph 1013.7mb 68f
7:24 2 3 mph 1013.6mb 68f
7:18 3
mph
1013.6mb 68f
7:12 1 2 mph 1013.6mb 68f
7:06 1 2 mph 1013.5mb 67f
7:00 2 3 mph 1013.4mb 67f
6:54 2 3 mph 1013.4mb 67f
6:48  -  mph 1013.4mb 67f
6:42  -  mph 1013.5mb 67f
6:36  -  mph 1013.6mb 67f
6:30 1 3 mph 1013.5mb 67f
6:24 2 3 mph 1013.4mb 67f
6:18 2 5 mph 1013.4mb 67f
6:12 2 3 mph 1013.4mb 67f
6:06 3 5 mph 1013.3mb 67f
6:00 3 5 mph 1013.3mb 67f
5:54 3 5 mph 1013.3mb 67f
5:48 3 5 mph 1013.3mb 67f
5:42 3
mph
1013.3mb 67f
5:36 3
mph
1013.4mb 67f
5:30 2 3 mph 1013.3mb 67f
5:24 2
mph
1013.1mb 67f
5:18 2 3 mph 1013.1mb 67f
5:12 1 2 mph 1013mb 67f
5:06 1 2 mph 1012.9mb 67f
5:00 2
mph
1012.9mb 67f
4:54 1 2 mph 1012.8mb 67f
4:48 1 2 mph 1012.8mb 67f
4:42 2
mph
1012.8mb 67f
4:36 1 2 mph 1012.9mb 67f
4:30 2 3 mph 1012.8mb 67f
4:24 2 3 mph 1012.8mb 67f
4:18 1 3 mph 1012.7mb 67f
4:12 1 2 mph 1012.6mb 67f
4:06  -  1 mph 1012.6mb 67f
4:00  -  2 mph 1012.6mb -
3:54 2 3 mph 1012.6mb -
3:48 2 3 mph 1012.7mb -
3:42 2 3 mph 1012.7mb -
3:36 2 3 mph 1012.8mb -
3:30 3 5 mph 1012.7mb 67f
3:24 3 5 mph 1012.7mb 67f
3:18 5 6 mph 1012.6mb 67f
3:12 3 5 mph 1012.7mb 67f
3:06 5 6 mph 1012.7mb 67f
3:00 5 6 mph 1012.6mb 67f
2:54 6
mph
1012.6mb 67f
2:48 5 6 mph 1012.6mb 67f
2:42 6 7 mph 1012.6mb 67f
2:36 6 7 mph 1012.7mb 67f
2:30 6 7 mph 1012.6mb 67f
2:24 6 7 mph 1012.6mb 67f
2:18 7 9 mph 1012.7mb 67f
2:12 8 9 mph 1012.6mb 67f
2:06 8 10 mph 1012.6mb 67f
2:00 8 9 mph 1012.6mb 67f
1:54 7 8 mph 1012.7mb 67f
1:48 7 8 mph 1012.8mb 68f
1:42 7 8 mph 1012.6mb 68f
1:36 6 7 mph 1012.5mb 68f
1:30 3 5 mph 1012.6mb 68f
1:24 3 6 mph 1012.6mb 68f
1:18 5 6 mph 1012.4mb 68f
1:12 5 7 mph 1012.3mb 68f
1:06 6
mph
1012.5mb 68f
1:00 6
mph
1012.6mb 68f
12:54 5 6 mph 1012.6mb 69f
12:48 5
mph
1012.7mb 69f
12:42 3 5 mph 1012.7mb 69f
12:36 3 5 mph 1012.6mb 69f
12:30 5 6 mph 1012.6mb 69f
12:24 5 6 mph 1012.6mb 69f
12:18 5 6 mph 1012.7mb 69f
12:12 6 7 mph 1012.7mb 69f
12:06 6 7 mph 1012.8mb 69f
12:00 3 6 mph 1012.7mb 69f
lun 06/27 11:54 5 6 mph 1012.8mb 69f
11:48 6
mph
1012.7mb -
11:42 5 6 mph 1012.8mb -
11:36 3 6 mph 1012.7mb -
11:30 3
mph
1012.7mb 70f
11:24 3 5 mph 1012.8mb 70f
11:18 5
mph
1012.8mb 70f
11:12 3
mph
1012.7mb 70f
11:06 3
mph
1012.7mb 70f
11:00 3
mph
1012.7mb 70f
10:54 3 5 mph 1012.7mb 70f
10:48 3 6 mph - 70f
10:42 5 6 mph - 70f
10:36 5 6 mph - 70f
10:30 5 6 mph 1012.6mb 71f
10:24 5 6 mph 1012.6mb 71f
10:18 6
mph
1012.6mb 71f
10:12 5 6 mph 1012.6mb 71f
10:06 5 6 mph 1012.6mb 71f
10:00 6 7 mph 1012.6mb 71f
9:54 5 6 mph 1012.4mb 71f
9:48 6
mph
1012.3mb 71f
9:42 6 7 mph 1012.1mb 71f
9:36 7 8 mph 1012.2mb 71f
9:30 8 9 mph 1012.2mb 71f
9:24 8 9 mph 1012mb 72f
9:18 7 9 mph 1012.1mb 72f
9:12 6 7 mph 1012.1mb 72f
9:06 7 8 mph 1012mb 72f
9:00 7 8 mph 1011.9mb 72f
8:54 6 7 mph 1011.7mb 72f
8:48  -  mph 1011.7mb 73f
8:42  -  mph 1011.7mb 73f
8:30 9 10 mph 1011.4mb 73f
8:24 8 10 mph 1011.4mb 73f
8:18 8 9 mph 1011.5mb 74f
8:12 6 8 mph 1011.5mb 75f
8:06 7 9 mph 1011.6mb 75f
8:00  -  mph 1011.6mb 74f
7:54  -  mph 1011.5mb 74f
7:48  -  mph 1011.5mb -
7:42  -  mph 1011.3mb -
7:36  -  mph 1011.4mb -
7:30  -  mph 1011.2mb -
7:24  -  mph 1011.4mb -
7:18  -  mph 1011.5mb 76f
7:12  -  mph 1011.5mb 76f
7:06  -  mph 1011.5mb 74f
7:00  -  mph 1011.4mb -
6:54  -  mph 1011.4mb -
6:48  -  mph 1011.4mb -
6:42  -  mph 1011.2mb -
6:36  -  mph 1011.3mb -
6:30  -  mph 1011.3mb -
6:24  -  mph 1011.4mb -
6:18  -  mph 1011.4mb -
6:12  -  mph 1011.4mb -
6:06  -  mph 1011.3mb -
6:00  -  mph 1011.3mb 74f
5:54  -  mph 1011.2mb 74f
5:48  -  mph 1011.3mb -
5:42  -  mph 1011.2mb -
5:36  -  mph 1011.4mb -
5:30  -  mph 1011.4mb -
5:24  -  mph 1011.5mb -
5:18 11 13 mph 1011.6mb -
5:12 11 13 mph 1011.3mb -
5:06 10 11 mph 1011.3mb -
5:00  -  mph 1011.4mb -
4:54  -  mph 1011.8mb -
4:48 9 11 mph 1011.7mb -
4:42 11 13 mph 1011.8mb -
4:36 11 13 mph 1011.9mb -
4:30 11 13 mph 1011.9mb -
4:24 10 11 mph 1011.9mb -
4:18  -  mph 1011.8mb -
4:12  -  mph 1011.8mb -
4:06  -  mph 1011.8mb -
4:00  -  mph 1011.8mb -
3:54  -  mph 1012mb -
3:48  -  mph 1011.9mb -
3:42  -  mph 1012.1mb -
3:36  -  mph 1012.1mb -
3:30  -  mph 1012.1mb 71f
3:24  -  mph 1012mb 71f
3:18  -  mph 1012.1mb 72f
3:12  -  mph 1012.3mb 72f
3:06  -  mph 1012.3mb 71f
3:00  -  mph 1012.1mb -
2:54  -  mph 1012.1mb -
2:48  -  mph 1012.2mb 73f
2:42  -  mph 1012.3mb 73f
2:36  -  mph 1012.4mb 72f
2:30 10 11 mph 1012.4mb 71f
2:24 9 10 mph 1012.3mb 71f
2:18 9 10 mph 1012.4mb 73f
2:12 9 10 mph 1012.5mb 73f
2:06 9 10 mph 1012.5mb 71f
2:00 9 10 mph 1012.3mb 71f
1:54 8
mph
1012.4mb 73f
1:48 8 9 mph 1012.5mb 72f
1:42 8 9 mph 1012.5mb 74f
1:36 7 9 mph 1012.7mb 74f
1:30 7 9 mph 1012.8mb 74f
1:24 8 9 mph 1012.9mb 73f
1:18 8 9 mph 1013mb 74f
1:12 8 9 mph 1013.1mb 73f
1:06 8 9 mph 1013.1mb 71f
1:00 9 10 mph 1012.9mb 71f
12:54 8 9 mph 1013.1mb 73f
12:48 8
mph
1013.1mb 71f
12:42 8 9 mph 1013.1mb 70f
12:36 8 9 mph 1013.1mb 70f
12:30 9 10 mph 1013.1mb 70f
12:24 8 9 mph 1013.2mb 70f
12:18 9 10 mph 1013.1mb 70f
12:12 9 10 mph 1013.1mb 69f
12:06 8 10 mph 1013.1mb 69f
12:00 8 9 mph 1013.1mb 69f
11:54 7 8 mph 1013.1mb 69f